Yeager (CRW)

 

Airport Diagram
Current Weather/Forecast (MVFR Conditions)
METAR KCRW 260254Z 36004KT 5SM RA BR SCT005 BKN050 OVC100 04/04 A2975 RMK AO2 RAB02 SLP079 P0011 60011 T00440044 53003 $
TAF KCRW 260307Z 2603/2624 36004KT 5SM -RA BR BKN005 BKN050 OVC100 FM260600 19002KT 1 1/2SM BR OVC005 FM261200 22003KT 3SM BR OVC009 FM261500 24007KT P6SM BKN015 FM261700 25009G20KT P6SM BKN022 FM262000 25009G20KT P6SM SCT045

Airport Information

All Charts
General
Chart Name View
AIRPORT DIAGRAM
AIRPORT DIAGRAM
TAKEOFF MINIMUMS
ALTERNATE MINIMUMS
TAKEOFF MINIMUMS
ALTERNATE MINIMUMS

Approaches
Chart Name Download
ILS OR LOC RWY 05
ILS OR LOC RWY 23
RNAV (RNP) Z RWY 05
RNAV (RNP) Z RWY 23
RNAV (GPS) Y RWY 05
RNAV (GPS) Y RWY 23
VOR-A
ILS OR LOC RWY 05
ILS OR LOC RWY 23
RNAV (RNP) Z RWY 05
RNAV (RNP) Z RWY 23
RNAV (GPS) Y RWY 05
RNAV (GPS) Y RWY 23
VOR-A


Airport Statistics
Departures Arrivals Local
All Collected Stats since June 2016: 397 343 18
2021 Stats: 22 27 0
January Stats: 22 27 0

Inbound Traffic (Arrivals) - 0

No inbound traffic.


Outbound Traffic (Departures) - 0

No outbound traffic.


Local Traffic (Pattern) - 0

No local traffic.